createdAt,value
2022-11-22T00:00:40.585Z,16.58
2022-11-22T00:01:42.764Z,16.75
2022-11-22T00:02:45.151Z,16.63
2022-11-22T00:03:47.519Z,16.73
2022-11-22T00:04:49.681Z,17.38
2022-11-22T00:05:52.064Z,15.70
2022-11-22T00:06:54.228Z,16.40
2022-11-22T00:07:56.403Z,17.70
2022-11-22T00:08:58.804Z,17.88
2022-11-22T00:10:00.947Z,18.38
2022-11-22T00:11:03.105Z,16.83
2022-11-22T00:12:05.558Z,16.98
2022-11-22T00:13:07.862Z,17.50
2022-11-22T00:14:10.220Z,18.33
2022-11-22T00:15:13.060Z,17.80
2022-11-22T00:16:15.280Z,17.77
2022-11-22T00:17:17.488Z,17.45
2022-11-22T00:18:19.883Z,18.23
2022-11-22T00:19:22.044Z,17.50
2022-11-22T00:20:24.503Z,17.95
2022-11-22T00:21:26.689Z,18.38
2022-11-22T00:22:28.874Z,16.90
2022-11-22T00:23:31.084Z,17.15
2022-11-22T00:24:33.591Z,18.17
2022-11-22T00:25:35.971Z,17.25
2022-11-22T00:26:38.135Z,16.63
2022-11-22T00:27:40.895Z,17.17
2022-11-22T00:28:43.110Z,17.45
2022-11-22T00:29:45.358Z,17.80
2022-11-22T00:30:47.877Z,18.00
2022-11-22T00:31:50.010Z,17.23
2022-11-22T00:32:52.555Z,17.88
2022-11-22T00:33:54.895Z,17.88
2022-11-22T00:34:57.044Z,17.02
2022-11-22T00:35:59.364Z,17.02
2022-11-22T00:37:01.537Z,17.35
2022-11-22T00:38:03.723Z,18.27
2022-11-22T00:39:06.047Z,17.65
2022-11-22T00:40:08.792Z,17.35
2022-11-22T00:41:11.161Z,17.40
2022-11-22T00:42:13.360Z,18.27
2022-11-22T00:43:15.713Z,19.15
2022-11-22T00:44:17.882Z,18.00
2022-11-22T00:45:20.224Z,18.08
2022-11-22T00:46:22.599Z,19.63
2022-11-22T00:47:24.990Z,17.65
2022-11-22T00:48:27.380Z,19.08
2022-11-22T00:49:29.838Z,18.95
2022-11-22T00:50:32.209Z,17.80
2022-11-22T00:51:34.604Z,17.55
2022-11-22T00:52:36.954Z,17.10
2022-11-22T00:53:39.141Z,17.90
2022-11-22T00:54:41.593Z,19.40
2022-11-22T00:55:45.751Z,17.90
2022-11-22T00:56:47.894Z,17.60
2022-11-22T00:57:50.449Z,18.17
2022-11-22T00:58:52.670Z,18.88
2022-11-22T00:59:54.819Z,17.83
2022-11-22T01:00:57.199Z,18.35
2022-11-22T01:01:59.519Z,19.60
2022-11-22T01:03:01.860Z,18.75
2022-11-22T01:04:04.159Z,17.27
2022-11-22T01:05:06.725Z,17.80
2022-11-22T01:06:09.083Z,18.63
2022-11-22T01:07:11.712Z,17.25
2022-11-22T01:08:14.239Z,18.30
2022-11-22T01:09:22.035Z,18.65
2022-11-22T01:10:24.537Z,18.70
2022-11-22T01:11:26.973Z,19.00
2022-11-22T01:12:29.323Z,19.88
2022-11-22T01:13:31.811Z,18.02
2022-11-22T01:14:33.975Z,18.77
2022-11-22T01:15:36.151Z,20.15
2022-11-22T01:16:38.486Z,20.17
2022-11-22T01:17:40.724Z,19.77
2022-11-22T01:18:43.287Z,19.92
2022-11-22T01:19:46.258Z,20.27
2022-11-22T01:20:48.708Z,19.10
2022-11-22T01:21:51.122Z,19.45
2022-11-22T01:22:54.070Z,18.83
2022-11-22T01:23:56.237Z,18.95
2022-11-22T01:24:58.763Z,19.70
2022-11-22T01:26:01.612Z,19.15
2022-11-22T01:27:03.784Z,20.45
2022-11-22T01:28:06.188Z,19.20
2022-11-22T01:29:08.401Z,17.92
2022-11-22T01:30:11.333Z,19.08
2022-11-22T01:31:13.485Z,19.50
2022-11-22T01:32:15.667Z,21.20
2022-11-22T01:33:17.889Z,19.98
2022-11-22T01:34:20.216Z,20.77
2022-11-22T01:35:22.584Z,20.55
2022-11-22T01:36:25.255Z,19.67
2022-11-22T01:37:27.586Z,19.45
2022-11-22T01:38:29.731Z,20.88
2022-11-22T01:39:32.386Z,21.52
2022-11-22T01:40:35.442Z,22.30
2022-11-22T01:41:39.651Z,22.52
2022-11-22T01:42:50.634Z,21.08
2022-11-22T01:43:53.100Z,22.10
2022-11-22T01:44:55.251Z,21.90
2022-11-22T01:46:01.004Z,22.45
2022-11-22T01:47:11.844Z,23.35
2022-11-22T01:50:00.621Z,22.63
2022-11-22T01:51:15.965Z,21.02
2022-11-22T01:52:20.613Z,22.17
2022-11-22T01:53:28.351Z,22.45
2022-11-22T01:54:35.955Z,24.38
2022-11-22T01:55:38.810Z,22.38
2022-11-22T01:56:44.815Z,24.17
2022-11-22T01:57:47.372Z,22.25
2022-11-22T01:58:55.242Z,22.58
2022-11-22T02:00:01.840Z,24.52
2022-11-22T02:01:07.914Z,23.63
2022-11-22T02:02:11.261Z,24.08
2022-11-22T02:03:15.825Z,25.33
2022-11-22T02:04:19.716Z,24.52
2022-11-22T02:05:26.396Z,24.92
2022-11-22T02:06:42.193Z,23.63
2022-11-22T02:07:52.762Z,23.40
2022-11-22T02:09:04.309Z,25.83
2022-11-22T02:10:08.084Z,25.98
2022-11-22T02:11:12.525Z,26.08
2022-11-22T02:12:17.352Z,25.35
2022-11-22T02:13:22.483Z,28.23
2022-11-22T02:14:27.014Z,24.33
2022-11-22T02:15:29.642Z,26.30
2022-11-22T02:16:31.917Z,25.60
2022-11-22T02:17:34.285Z,27.55
2022-11-22T02:18:37.807Z,25.48
2022-11-22T02:19:46.405Z,25.10
2022-11-22T02:20:48.831Z,26.90
2022-11-22T02:21:56.825Z,26.45
2022-11-22T02:23:29.371Z,27.00
2022-11-22T02:24:42.457Z,27.70
2022-11-22T02:25:54.957Z,28.13
2022-11-22T02:26:58.407Z,28.60
2022-11-22T02:28:00.774Z,28.60
2022-11-22T02:29:06.800Z,28.13
2022-11-22T02:30:09.292Z,25.92
2022-11-22T02:31:35.575Z,28.95
2022-11-22T02:32:37.924Z,26.27
2022-11-22T02:33:40.069Z,27.45
2022-11-22T02:34:47.862Z,27.13
2022-11-22T02:35:50.099Z,25.17
2022-11-22T02:36:54.286Z,25.20
2022-11-22T02:38:00.408Z,25.80
2022-11-22T02:39:03.422Z,27.65
2022-11-22T02:40:09.149Z,28.23
2022-11-22T02:41:12.606Z,28.05
2022-11-22T02:42:14.920Z,27.73
2022-11-22T02:43:59.734Z,28.27
2022-11-22T02:45:02.123Z,26.65
2022-11-22T02:46:12.021Z,27.92
2022-11-22T02:47:14.885Z,30.77
2022-11-22T02:48:18.575Z,28.73
2022-11-22T02:49:23.532Z,27.95
2022-11-22T02:50:25.866Z,29.38
2022-11-22T02:51:28.090Z,29.30
2022-11-22T02:52:30.423Z,30.08
2022-11-22T02:53:32.746Z,28.98
2022-11-22T02:54:34.901Z,29.80
2022-11-22T02:55:37.926Z,30.38
2022-11-22T02:56:40.139Z,32.08
2022-11-22T02:57:42.562Z,31.05
2022-11-22T02:58:45.190Z,30.42
2022-11-22T02:59:47.338Z,30.40
2022-11-22T03:00:49.808Z,31.10
2022-11-22T03:01:52.338Z,30.27
2022-11-22T03:02:54.544Z,29.42
2022-11-22T03:03:56.946Z,31.77
2022-11-22T03:04:59.141Z,31.45
2022-11-22T03:06:02.593Z,29.58
2022-11-22T03:07:05.086Z,30.95
2022-11-22T03:08:07.331Z,30.02
2022-11-22T03:09:09.713Z,32.78
2022-11-22T03:10:12.033Z,33.17
2022-11-22T03:11:14.814Z,30.13
2022-11-22T03:12:17.365Z,27.70
2022-11-22T03:13:19.593Z,29.88
2022-11-22T03:14:22.021Z,29.23
2022-11-22T03:15:24.176Z,29.95
2022-11-22T03:16:26.382Z,28.10
2022-11-22T03:17:29.025Z,30.38
2022-11-22T03:18:33.913Z,29.35
2022-11-22T03:19:38.890Z,27.98
2022-11-22T03:20:41.434Z,28.13
2022-11-22T03:21:43.914Z,29.10
2022-11-22T03:22:46.284Z,27.60
2022-11-22T03:23:48.460Z,28.20
2022-11-22T03:24:50.660Z,28.02
2022-11-22T03:25:53.012Z,28.17
2022-11-22T03:26:57.458Z,28.88
2022-11-22T03:27:59.721Z,28.23
2022-11-22T03:29:02.267Z,29.55
2022-11-22T03:30:05.085Z,29.08
2022-11-22T03:31:08.025Z,28.70
2022-11-22T03:32:10.214Z,28.80
2022-11-22T03:33:12.844Z,29.08
2022-11-22T03:34:15.834Z,29.20
2022-11-22T03:35:18.020Z,29.00
2022-11-22T03:36:20.385Z,28.58
2022-11-22T03:37:22.598Z,28.17
2022-11-22T03:38:24.985Z,29.33
2022-11-22T03:39:27.478Z,30.77
2022-11-22T03:40:30.084Z,31.50
2022-11-22T03:41:32.315Z,31.70
2022-11-22T03:42:34.499Z,31.73
2022-11-22T03:43:36.674Z,33.05
2022-11-22T03:44:38.903Z,32.45
2022-11-22T03:45:46.024Z,32.97
2022-11-22T03:46:48.324Z,32.35
2022-11-22T03:47:50.513Z,32.83
2022-11-22T03:48:52.790Z,33.33
2022-11-22T03:49:55.162Z,33.90
2022-11-22T03:51:05.738Z,34.60
2022-11-22T03:52:08.283Z,34.25
2022-11-22T03:53:10.898Z,34.30
2022-11-22T03:54:13.133Z,36.08
2022-11-22T03:55:15.699Z,34.15
2022-11-22T03:56:18.037Z,36.05
2022-11-22T03:57:20.246Z,37.58
2022-11-22T03:58:22.636Z,37.00
2022-11-22T03:59:24.801Z,35.72
2022-11-22T04:00:27.308Z,37.15
2022-11-22T04:01:29.771Z,35.70
2022-11-22T04:02:32.403Z,36.08
2022-11-22T04:03:34.602Z,34.45
2022-11-22T04:04:36.774Z,35.95
2022-11-22T04:05:38.933Z,37.55
2022-11-22T04:06:41.406Z,36.70
2022-11-22T04:07:43.680Z,37.78
2022-11-22T04:08:46.127Z,36.80
2022-11-22T04:09:48.626Z,36.80
2022-11-22T04:10:51.798Z,36.95
2022-11-22T04:11:54.216Z,36.83
2022-11-22T04:13:00.101Z,37.47
2022-11-22T04:14:21.160Z,36.67
2022-11-22T04:15:23.353Z,36.15
2022-11-22T04:16:25.561Z,34.08
2022-11-22T04:17:46.111Z,35.95
2022-11-22T04:18:48.283Z,35.33
2022-11-22T04:20:09.043Z,35.28
2022-11-22T04:21:30.001Z,33.78
2022-11-22T04:23:34.572Z,31.45
2022-11-22T04:24:55.300Z,31.73
2022-11-22T04:25:57.451Z,32.25
2022-11-22T04:26:59.652Z,31.63
2022-11-22T04:28:02.550Z,31.67
2022-11-22T04:29:12.057Z,30.92
2022-11-22T04:30:20.139Z,30.77
2022-11-22T04:31:41.355Z,30.63
2022-11-22T04:32:46.565Z,31.30
2022-11-22T04:33:49.134Z,33.17
2022-11-22T04:34:51.317Z,29.80
2022-11-22T04:35:54.062Z,28.98
2022-11-22T04:36:56.354Z,30.30
2022-11-22T04:37:59.091Z,28.80
2022-11-22T04:39:01.280Z,31.30
2022-11-22T04:40:04.330Z,30.75
2022-11-22T04:41:06.504Z,30.50
2022-11-22T04:42:38.392Z,29.63
2022-11-22T04:43:59.358Z,29.77
2022-11-22T04:45:01.689Z,30.02
2022-11-22T04:46:03.857Z,30.23
2022-11-22T04:47:06.022Z,29.77
2022-11-22T04:48:08.184Z,30.50
2022-11-22T04:49:10.516Z,31.50
2022-11-22T04:50:31.851Z,31.65
2022-11-22T04:51:52.658Z,29.88
2022-11-22T04:52:58.363Z,31.50
2022-11-22T04:54:00.772Z,30.30
2022-11-22T04:55:02.977Z,30.48
2022-11-22T04:56:05.601Z,31.17
2022-11-22T04:57:07.769Z,32.03
2022-11-22T04:58:10.145Z,31.85
2022-11-22T04:59:12.433Z,29.92
2022-11-22T05:00:15.934Z,32.20
2022-11-22T05:01:18.644Z,31.98
2022-11-22T05:02:20.889Z,31.75
2022-11-22T05:03:23.309Z,30.80
2022-11-22T05:04:25.473Z,30.58
2022-11-22T05:05:28.068Z,29.75
2022-11-22T05:06:30.659Z,30.75
2022-11-22T05:07:34.166Z,30.85
2022-11-22T05:08:36.364Z,31.85
2022-11-22T05:09:38.725Z,30.80
2022-11-22T05:10:59.802Z,31.13
2022-11-22T05:13:04.133Z,28.27
2022-11-22T05:14:06.347Z,27.58
2022-11-22T05:15:11.846Z,30.13
2022-11-22T05:16:15.490Z,31.20
2022-11-22T05:17:17.932Z,31.60
2022-11-22T05:18:21.591Z,30.58
2022-11-22T05:19:23.755Z,29.02
2022-11-22T05:20:25.939Z,29.30
2022-11-22T05:21:29.562Z,29.55
2022-11-22T05:22:50.586Z,29.15
2022-11-22T05:23:55.922Z,29.45
2022-11-22T05:24:58.121Z,29.23
2022-11-22T05:26:00.415Z,30.10
2022-11-22T05:27:02.848Z,30.15
2022-11-22T05:28:05.221Z,29.92
2022-11-22T05:29:10.220Z,30.05
2022-11-22T05:30:12.749Z,29.45
2022-11-22T05:31:18.385Z,29.52
2022-11-22T05:32:20.725Z,29.45
2022-11-22T05:33:23.931Z,28.98
2022-11-22T05:34:26.114Z,30.83
2022-11-22T05:35:28.450Z,28.45
2022-11-22T05:36:34.519Z,29.08
2022-11-22T05:37:36.673Z,30.67
2022-11-22T05:38:39.832Z,32.05
2022-11-22T05:39:42.234Z,30.30
2022-11-22T05:40:44.407Z,31.50
2022-11-22T05:41:56.060Z,30.15
2022-11-22T05:42:59.266Z,29.85
2022-11-22T05:44:01.657Z,29.30
2022-11-22T05:45:04.614Z,31.08
2022-11-22T05:46:12.586Z,32.17
2022-11-22T05:47:14.916Z,30.10
2022-11-22T05:48:17.076Z,29.75
2022-11-22T05:49:19.268Z,31.02
2022-11-22T05:50:21.820Z,30.55
2022-11-22T05:51:34.839Z,30.77
2022-11-22T05:52:37.607Z,32.17
2022-11-22T05:53:40.705Z,31.80
2022-11-22T05:54:43.001Z,33.10
2022-11-22T05:55:45.585Z,30.45
2022-11-22T05:56:48.584Z,31.42
2022-11-22T05:57:50.741Z,28.63
2022-11-22T05:58:53.381Z,32.40
2022-11-22T05:59:55.556Z,32.85
2022-11-22T06:01:03.282Z,30.80
2022-11-22T06:02:05.485Z,32.47
2022-11-22T06:03:07.679Z,31.40
2022-11-22T06:04:09.892Z,33.72
2022-11-22T06:05:12.221Z,33.33
2022-11-22T06:06:15.035Z,32.95
2022-11-22T06:07:17.846Z,34.83
2022-11-22T06:08:20.237Z,34.40
2022-11-22T06:09:22.977Z,34.97
2022-11-22T06:10:25.780Z,32.78
2022-11-22T06:11:28.850Z,32.80
2022-11-22T06:12:31.001Z,33.70
2022-11-22T06:13:37.593Z,33.53
2022-11-22T06:14:43.252Z,32.58
2022-11-22T06:15:46.071Z,30.55
2022-11-22T06:16:48.416Z,32.17
2022-11-22T06:17:50.645Z,32.47
2022-11-22T06:18:56.683Z,33.00
2022-11-22T06:20:02.803Z,31.48
2022-11-22T06:21:12.157Z,31.30
2022-11-22T06:22:14.482Z,32.88
2022-11-22T06:23:16.637Z,32.25
2022-11-22T06:24:19.014Z,31.25
2022-11-22T06:25:21.169Z,32.22
2022-11-22T06:26:24.511Z,32.83
2022-11-22T06:27:27.172Z,32.22
2022-11-22T06:28:30.879Z,30.98
2022-11-22T06:29:33.365Z,33.42
2022-11-22T06:30:35.727Z,32.42
2022-11-22T06:31:37.922Z,32.80
2022-11-22T06:32:40.366Z,33.13
2022-11-22T06:33:43.374Z,33.55
2022-11-22T06:34:45.512Z,36.40
2022-11-22T06:35:47.876Z,34.78
2022-11-22T06:36:50.083Z,35.00
2022-11-22T06:37:57.455Z,36.28
2022-11-22T06:39:03.857Z,35.88
2022-11-22T06:40:08.432Z,35.13
2022-11-22T06:41:13.894Z,35.95
2022-11-22T06:42:16.094Z,36.30
2022-11-22T06:43:18.276Z,37.05
2022-11-22T06:44:20.840Z,36.85
2022-11-22T06:45:23.005Z,37.35
2022-11-22T06:46:27.031Z,36.80
2022-11-22T06:47:29.387Z,39.00
2022-11-22T06:48:34.147Z,36.88
2022-11-22T06:49:36.587Z,36.80
2022-11-22T06:50:38.774Z,35.40
2022-11-22T06:51:40.972Z,37.33
2022-11-22T06:52:43.350Z,39.45
2022-11-22T06:53:48.495Z,38.17
2022-11-22T06:54:51.261Z,37.20
2022-11-22T06:56:01.440Z,37.72
2022-11-22T06:57:04.021Z,35.80
2022-11-22T06:58:06.178Z,35.88
2022-11-22T06:59:09.192Z,38.33
2022-11-22T07:00:12.008Z,37.08
2022-11-22T07:01:19.367Z,34.40
2022-11-22T07:02:21.668Z,34.03
2022-11-22T07:03:24.000Z,35.53
2022-11-22T07:04:26.155Z,34.58
2022-11-22T07:05:28.741Z,33.85
2022-11-22T07:06:33.710Z,34.75
2022-11-22T07:07:35.942Z,32.25
2022-11-22T07:08:39.001Z,33.58
2022-11-22T07:09:41.331Z,33.83
2022-11-22T07:10:43.517Z,33.10
2022-11-22T07:11:45.730Z,33.05
2022-11-22T07:12:47.911Z,32.35
2022-11-22T07:13:50.791Z,34.22
2022-11-22T07:14:53.129Z,31.25
2022-11-22T07:16:00.051Z,31.60
2022-11-22T07:17:02.260Z,32.72
2022-11-22T07:18:04.756Z,32.53
2022-11-22T07:19:07.584Z,30.42
2022-11-22T07:20:10.283Z,31.70
2022-11-22T07:21:21.518Z,32.00
2022-11-22T07:22:23.862Z,28.15
2022-11-22T07:23:26.239Z,29.95
2022-11-22T07:24:28.822Z,28.75
2022-11-22T07:25:30.988Z,29.80
2022-11-22T07:26:33.204Z,25.67
2022-11-22T07:27:35.334Z,25.30
2022-11-22T07:28:38.373Z,28.50
2022-11-22T07:29:40.738Z,26.92
2022-11-22T07:30:44.337Z,27.08
2022-11-22T07:31:46.853Z,26.40
2022-11-22T07:32:49.053Z,27.23
2022-11-22T07:33:51.203Z,25.95
2022-11-22T07:34:53.763Z,26.70
2022-11-22T07:35:56.639Z,27.67
2022-11-22T07:37:01.408Z,25.85
2022-11-22T07:38:05.925Z,26.67
2022-11-22T07:39:08.156Z,25.17
2022-11-22T07:40:11.660Z,25.33
2022-11-22T07:41:14.748Z,26.17
2022-11-22T07:42:16.892Z,26.45
2022-11-22T07:43:19.090Z,26.10
2022-11-22T07:44:22.576Z,24.13
2022-11-22T07:45:24.960Z,35.35
2022-11-22T07:46:31.153Z,28.10
2022-11-22T07:47:33.574Z,25.23
2022-11-22T07:48:35.955Z,25.35
2022-11-22T07:49:39.186Z,24.63
2022-11-22T07:50:42.096Z,23.55
2022-11-22T07:51:44.283Z,24.50
2022-11-22T07:52:46.436Z,25.15
2022-11-22T07:53:48.816Z,25.33
2022-11-22T07:54:51.032Z,24.08
2022-11-22T07:55:53.192Z,24.63
2022-11-22T07:56:55.396Z,24.88
2022-11-22T07:58:01.340Z,24.40
2022-11-22T07:59:03.563Z,27.13
2022-11-22T08:00:06.348Z,26.92
2022-11-22T08:01:12.682Z,26.05
2022-11-22T08:02:15.150Z,24.35
2022-11-22T08:03:18.314Z,25.10
2022-11-22T08:04:21.614Z,23.85
2022-11-22T08:05:24.047Z,25.70
2022-11-22T08:06:26.332Z,24.05
2022-11-22T08:07:28.748Z,24.40
2022-11-22T08:08:31.066Z,24.48
2022-11-22T08:09:33.289Z,25.48
2022-11-22T08:10:35.854Z,24.98
2022-11-22T08:11:38.026Z,26.52
2022-11-22T08:12:40.563Z,24.85
2022-11-22T08:13:44.001Z,25.13
2022-11-22T08:14:46.183Z,25.65
2022-11-22T08:15:49.941Z,24.70
2022-11-22T08:16:52.532Z,24.60
2022-11-22T08:17:54.699Z,23.67
2022-11-22T08:18:56.943Z,24.10
2022-11-22T08:19:59.107Z,23.27
2022-11-22T08:21:09.550Z,24.05
2022-11-22T08:22:11.842Z,23.13
2022-11-22T08:23:14.006Z,23.30
2022-11-22T08:24:16.702Z,22.98
2022-11-22T08:25:18.961Z,22.30
2022-11-22T08:26:21.421Z,23.27
2022-11-22T08:27:24.749Z,23.85
2022-11-22T08:28:27.202Z,22.83
2022-11-22T08:29:30.009Z,22.25
2022-11-22T08:30:32.556Z,23.25
2022-11-22T08:31:34.891Z,23.95
2022-11-22T08:32:37.578Z,22.73
2022-11-22T08:33:40.536Z,24.17
2022-11-22T08:34:46.913Z,21.33
2022-11-22T08:35:50.396Z,22.67
2022-11-22T08:36:52.783Z,23.85
2022-11-22T08:37:57.434Z,24.52
2022-11-22T08:38:59.680Z,23.98
2022-11-22T08:40:02.274Z,22.65
2022-11-22T08:41:06.620Z,23.75
2022-11-22T08:42:08.873Z,24.05
2022-11-22T08:43:11.232Z,23.77
2022-11-22T08:44:13.541Z,24.80
2022-11-22T08:45:16.009Z,24.38
2022-11-22T08:46:19.076Z,24.73
2022-11-22T08:47:21.574Z,22.48
2022-11-22T08:48:27.458Z,24.40
2022-11-22T08:49:29.917Z,22.65
2022-11-22T08:50:32.344Z,23.27
2022-11-22T08:51:36.278Z,24.08
2022-11-22T08:52:38.472Z,23.45
2022-11-22T08:53:43.823Z,24.17
2022-11-22T08:54:45.965Z,24.90
2022-11-22T08:55:48.181Z,23.55
2022-11-22T08:56:50.349Z,23.50
2022-11-22T08:57:52.510Z,23.77
2022-11-22T08:58:55.136Z,22.80
2022-11-22T08:59:57.343Z,23.88
2022-11-22T09:01:11.420Z,22.67
2022-11-22T09:02:13.803Z,21.42
2022-11-22T09:03:16.190Z,22.98
2022-11-22T09:04:18.384Z,22.40
2022-11-22T09:05:20.591Z,22.25
2022-11-22T09:09:30.524Z,22.75
2022-11-22T09:10:30.563Z,22.75
2022-11-22T09:11:32.764Z,22.17
2022-11-22T09:12:34.953Z,22.92
2022-11-22T09:13:37.605Z,22.98
2022-11-22T09:14:40.688Z,23.70
2022-11-22T09:15:42.859Z,23.65
2022-11-22T09:16:45.260Z,24.15
2022-11-22T09:17:47.895Z,23.65
2022-11-22T09:18:50.409Z,24.02
2022-11-22T09:19:52.961Z,24.92
2022-11-22T09:21:02.819Z,22.88
2022-11-22T09:22:05.234Z,23.02
2022-11-22T09:23:07.453Z,22.25
2022-11-22T09:24:09.811Z,22.67
2022-11-22T09:25:12.156Z,23.15
2022-11-22T09:26:17.289Z,23.33
2022-11-22T09:27:20.305Z,23.60
2022-11-22T09:28:22.467Z,23.98
2022-11-22T09:29:26.344Z,23.27
2022-11-22T09:30:30.138Z,23.52
2022-11-22T09:31:32.517Z,23.30
2022-11-22T09:32:34.830Z,24.05
2022-11-22T09:33:40.046Z,22.38
2022-11-22T09:34:42.235Z,22.40
2022-11-22T09:35:44.805Z,23.00
2022-11-22T09:36:47.182Z,22.52
2022-11-22T09:37:49.507Z,22.27
2022-11-22T09:38:52.358Z,21.63
2022-11-22T09:39:54.530Z,21.23
2022-11-22T09:40:58.020Z,22.52
2022-11-22T09:42:15.533Z,21.00
2022-11-22T09:43:48.426Z,22.05
2022-11-22T09:45:38.604Z,20.30
2022-11-22T09:47:25.203Z,21.58
2022-11-22T09:48:55.240Z,22.00
2022-11-22T09:50:26.183Z,23.08
2022-11-22T09:52:43.970Z,18.95
2022-11-22T09:53:58.629Z,19.90
2022-11-22T09:55:05.497Z,20.50
2022-11-22T09:56:16.660Z,19.73
2022-11-22T09:57:26.317Z,21.67
2022-11-22T09:58:37.635Z,22.48
2022-11-22T09:59:46.492Z,19.50
2022-11-22T10:00:52.253Z,19.35
2022-11-22T10:02:17.535Z,21.17
2022-11-22T10:03:36.598Z,18.67
2022-11-22T10:04:43.603Z,19.38
2022-11-22T10:05:58.326Z,20.83
2022-11-22T10:07:24.592Z,19.52
2022-11-22T10:08:52.298Z,19.90
2022-11-22T10:10:25.167Z,18.48
2022-11-22T10:11:46.991Z,17.60
2022-11-22T10:12:57.012Z,19.27
2022-11-22T10:14:04.618Z,19.92
2022-11-22T10:15:44.336Z,20.00
2022-11-22T10:17:27.089Z,18.88
2022-11-22T10:18:54.161Z,18.48
2022-11-22T10:20:07.211Z,20.05
2022-11-22T10:21:13.910Z,19.10
2022-11-22T10:22:16.328Z,18.45
2022-11-22T10:23:23.911Z,18.48
2022-11-22T10:24:26.292Z,19.52
2022-11-22T10:25:48.136Z,19.35
2022-11-22T10:26:50.604Z,18.70
2022-11-22T10:28:10.441Z,17.90
2022-11-22T10:29:42.380Z,17.50
2022-11-22T10:30:58.293Z,18.55
2022-11-22T10:32:20.423Z,19.63
2022-11-22T10:33:32.997Z,18.10
2022-11-22T10:34:57.130Z,16.08
2022-11-22T10:36:51.495Z,17.50
2022-11-22T10:38:36.351Z,17.00
2022-11-22T10:39:55.204Z,16.90
2022-11-22T10:41:12.913Z,18.67
2022-11-22T10:42:24.237Z,17.73
2022-11-22T10:43:42.635Z,16.63
2022-11-22T10:44:58.491Z,16.92
2022-11-22T10:46:12.426Z,16.95
2022-11-22T10:47:45.437Z,16.67
2022-11-22T10:49:20.627Z,17.02
2022-11-22T10:50:50.745Z,17.08
2022-11-22T10:52:00.249Z,16.38
2022-11-22T10:53:24.468Z,16.77
2022-11-22T10:54:49.116Z,17.58
2022-11-22T10:56:11.756Z,17.13
2022-11-22T10:57:41.124Z,18.00
2022-11-22T10:59:05.046Z,16.55
2022-11-22T11:00:21.446Z,17.15
2022-11-22T11:01:53.655Z,17.23
2022-11-22T11:03:17.075Z,16.77
2022-11-22T11:04:21.077Z,16.27
2022-11-22T11:05:30.805Z,16.27
2022-11-22T11:08:29.620Z,17.45
2022-11-22T11:11:10.112Z,15.90
2022-11-22T11:12:31.175Z,17.20
2022-11-22T11:14:46.867Z,15.90
2022-11-22T11:15:56.251Z,14.85
2022-11-22T11:17:01.038Z,19.30
2022-11-22T11:18:08.712Z,16.60
2022-11-22T11:19:10.801Z,16.25
2022-11-22T11:20:25.242Z,16.30
2022-11-22T11:21:27.629Z,17.38
2022-11-22T11:23:06.377Z,16.90
2022-11-22T11:23:55.766Z,16.98
2022-11-22T11:25:29.148Z,18.33
2022-11-22T11:26:34.508Z,16.33
2022-11-22T11:27:41.292Z,16.85
2022-11-22T11:28:43.559Z,17.23
2022-11-22T11:30:07.179Z,16.55
2022-11-22T11:31:11.590Z,17.33
2022-11-22T11:32:16.390Z,16.35
2022-11-22T11:33:34.957Z,16.67
2022-11-22T11:34:40.123Z,16.52
2022-11-22T11:35:45.490Z,18.02
2022-11-22T11:36:48.638Z,18.25
2022-11-22T11:37:50.855Z,17.90
2022-11-22T11:38:57.824Z,17.60
2022-11-22T11:40:00.008Z,18.73
2022-11-22T11:41:29.660Z,17.63
2022-11-22T11:42:34.860Z,18.15
2022-11-22T11:43:43.056Z,17.48
2022-11-22T11:44:45.241Z,17.90
2022-11-22T11:45:47.801Z,18.35
2022-11-22T11:46:49.971Z,18.98
2022-11-22T11:47:52.330Z,17.98
2022-11-22T11:48:56.848Z,17.38
2022-11-22T11:49:59.129Z,17.05
2022-11-22T11:51:46.078Z,19.20
2022-11-22T11:52:54.964Z,17.42
2022-11-22T11:54:03.989Z,18.20
2022-11-22T11:55:16.913Z,17.58
2022-11-22T11:56:45.164Z,17.98
2022-11-22T11:57:49.706Z,18.73
2022-11-22T11:58:56.082Z,18.92
2022-11-22T12:00:01.389Z,19.52
2022-11-22T12:01:11.222Z,18.10
2022-11-22T12:02:23.856Z,20.17
2022-11-22T12:03:27.407Z,19.42
2022-11-22T12:04:34.749Z,19.00
2022-11-22T12:05:37.047Z,19.60
2022-11-22T12:06:39.220Z,20.05
2022-11-22T12:07:44.854Z,18.48
2022-11-22T12:08:47.342Z,19.40
2022-11-22T12:09:51.694Z,19.40
2022-11-22T12:11:06.439Z,18.92
2022-11-22T12:12:23.439Z,17.58
2022-11-22T12:13:57.826Z,16.45
2022-11-22T12:15:29.495Z,18.08
2022-11-22T12:16:40.000Z,17.35
2022-11-22T12:17:49.656Z,16.80
2022-11-22T12:19:14.705Z,17.92
2022-11-22T12:20:25.322Z,17.55
2022-11-22T12:22:07.340Z,17.45
2022-11-22T12:23:24.438Z,16.95
2022-11-22T12:24:56.962Z,16.52
2022-11-22T12:26:02.015Z,18.45
2022-11-22T12:27:04.329Z,16.63
2022-11-22T12:28:18.147Z,16.98
2022-11-22T12:29:20.628Z,18.05
2022-11-22T12:30:23.803Z,17.63
2022-11-22T12:31:28.841Z,18.20
2022-11-22T12:32:43.330Z,17.73
2022-11-22T12:33:52.973Z,17.90
2022-11-22T12:35:03.946Z,17.90
2022-11-22T12:36:15.087Z,17.73
2022-11-22T12:37:24.584Z,17.20
2022-11-22T12:38:39.384Z,18.27
2022-11-22T12:39:47.546Z,18.08
2022-11-22T12:40:55.685Z,16.77
2022-11-22T12:42:09.280Z,19.20
2022-11-22T12:43:22.552Z,18.13
2022-11-22T12:44:36.970Z,18.65
2022-11-22T12:45:43.386Z,17.50
2022-11-22T12:46:50.960Z,18.60
2022-11-22T12:47:55.350Z,18.58
2022-11-22T12:49:23.821Z,17.48
2022-11-22T12:50:29.208Z,18.90
2022-11-22T12:51:47.348Z,18.95
2022-11-22T12:53:12.621Z,18.50
2022-11-22T12:54:19.860Z,18.88
2022-11-22T12:55:28.210Z,18.15
2022-11-22T12:56:42.466Z,19.42
2022-11-22T12:57:53.060Z,19.52
2022-11-22T12:59:11.575Z,18.52
2022-11-22T13:00:15.712Z,18.52
2022-11-22T13:01:26.398Z,17.30
2022-11-22T13:02:40.913Z,20.08
2022-11-22T13:03:45.922Z,18.60
2022-11-22T13:04:57.183Z,18.42
2022-11-22T13:06:03.464Z,18.48
2022-11-22T13:07:16.340Z,17.42
2022-11-22T13:08:31.494Z,17.50
2022-11-22T13:09:37.219Z,17.65
2022-11-22T13:10:47.999Z,19.02
2022-11-22T13:12:04.253Z,17.40
2022-11-22T13:13:20.001Z,18.25
2022-11-22T13:14:32.245Z,18.33
2022-11-22T13:15:39.440Z,18.70
2022-11-22T13:16:41.651Z,18.85
2022-11-22T13:17:43.806Z,19.42
2022-11-22T13:18:51.752Z,18.88
2022-11-22T13:20:02.066Z,18.02
2022-11-22T13:21:31.032Z,19.67
2022-11-22T13:22:45.411Z,19.52
2022-11-22T13:24:38.175Z,19.25
2022-11-22T13:25:51.049Z,18.83
2022-11-22T13:27:24.334Z,19.40
2022-11-22T13:28:32.598Z,18.75
2022-11-22T13:29:36.450Z,19.52
2022-11-22T13:30:42.376Z,19.50
2022-11-22T13:32:07.282Z,19.05
2022-11-22T13:33:25.570Z,19.05
2022-11-22T13:34:28.915Z,19.08
2022-11-22T13:35:37.203Z,20.38
2022-11-22T13:36:41.167Z,19.05
2022-11-22T13:37:50.114Z,18.58
2022-11-22T13:38:57.368Z,19.35
2022-11-22T13:40:16.141Z,19.60
2022-11-22T13:41:36.842Z,19.05
2022-11-22T13:42:39.134Z,21.20
2022-11-22T13:43:52.162Z,20.67
2022-11-22T13:44:54.302Z,20.55
2022-11-22T13:46:01.930Z,19.77
2022-11-22T13:47:25.006Z,19.95
2022-11-22T13:48:38.919Z,19.50
2022-11-22T13:49:48.953Z,20.15
2022-11-22T13:50:51.497Z,18.75
2022-11-22T13:51:56.297Z,18.58
2022-11-22T13:52:58.459Z,19.70
2022-11-22T13:54:40.090Z,19.63
2022-11-22T13:55:42.847Z,18.95
2022-11-22T13:56:45.276Z,19.90
2022-11-22T13:57:47.477Z,19.75
2022-11-22T13:59:18.973Z,19.63
2022-11-22T14:00:21.762Z,18.77
2022-11-22T14:01:34.140Z,18.52
2022-11-22T14:02:37.014Z,20.73
2022-11-22T14:03:43.049Z,19.27
2022-11-22T14:04:45.573Z,20.50
2022-11-22T14:05:50.299Z,20.92
2022-11-22T14:07:18.529Z,18.52
2022-11-22T14:08:40.309Z,19.15
2022-11-22T14:09:53.408Z,20.90
2022-11-22T14:10:55.696Z,20.38
2022-11-22T14:12:01.185Z,20.77
2022-11-22T14:13:25.047Z,20.63
2022-11-22T14:15:08.578Z,20.50
2022-11-22T14:16:29.312Z,20.20
2022-11-22T14:18:59.899Z,20.25
2022-11-22T14:20:26.883Z,20.45
2022-11-22T14:21:56.376Z,20.67
2022-11-22T14:23:06.646Z,19.77
2022-11-22T14:24:15.349Z,20.80
2022-11-22T14:25:41.822Z,21.80
2022-11-22T14:26:46.713Z,21.48
2022-11-22T14:27:56.272Z,21.65
2022-11-22T14:29:35.511Z,22.60
2022-11-22T14:30:53.553Z,19.88
2022-11-22T14:32:01.948Z,20.90
2022-11-22T14:33:13.477Z,20.98
2022-11-22T14:34:27.237Z,22.45
2022-11-22T14:35:35.842Z,20.70
2022-11-22T14:36:38.050Z,21.35